Terminal Aerodrome Forecast
Issued by NWS Dodge City, KS

Home | Current Version | Previous Version | Graphics & Text | Print | Product List | Glossary Off
Versions: 1 2 3 4 5 6 7 8 9 10 11 12 13 14 15 16 17 18 19

000
FTUS43 KDDC 251720
TAFDDC
TAF
KDDC 251720Z 2518/2618 24007KT P6SM OVC070
     FM252300 19010KT P6SM SCT200
     FM261200 07004KT P6SM BKN200
     FM261500 36007KT P6SM SCT200=

USA.gov is the U.S. government's official web portal to all federal, state and local government web resources and services.